LEZL/SVQ METAR and TAF weather

Enter ICAO airport designator
Station Type Date Time Source
LEZL METAR 2019/02/21 15:30 UTC NOAA

LEZL 211530Z VRB02KT CAVOK 22/07 Q1025 NOSIG


Station Type Date Time Source
LEZL Decoded METAR 2019/02/21 15:30 UTC NOAA

Sevilla / San Pablo, Spain (LEZL) 37-25N 005-54W 31M
Feb 21, 2019 - 10:30 AM EST / 2019.02.21 1530 UTC
Wind: Variable at 2 MPH (2 KT):0
Visibility: greater than 7 mile(s):0
Temperature: 71 F (22 C)
Dew Point: 44 F (7 C)
Relative Humidity: 37%
Pressure (altimeter): 30.27 in. Hg (1025 hPa)
ob: LEZL 211530Z VRB02KT CAVOK 22/07 Q1025 NOSIG
cycle: 15

Station Type Date Time Source
LEZL TAF 2019/02/21 15:27 UTC NOAA

TAF LEZL 211400Z 2115/2215 05005KT CAVOK TX22/2115Z TN08/2206Z


Example: see airport list